Time;durP1;ratioP1;P1;durP2;ratioP2;P2;SDS_P1;SDS_P2;PMS_P1;PMS_P2;Temp;Humidity;BMP_temperature;BMP_pressure;BME280_temperature;BME280_humidity;BME280_pressure;Samples;Min_cycle;Max_cycle;Signal;HPM_P1;HPM_P2
2022/09/19 00:02:02;;;;;;;0.53;0.50;;;6.80;99.90;;;;;;5032733;28;20200;-65
2022/09/19 00:04:32;;;;;;;1.17;0.80;;;6.80;99.90;;;;;;5032516;28;20216;-66
2022/09/19 00:07:01;;;;;;;0.83;0.60;;;6.70;99.90;;;;;;5032658;28;20200;-65
2022/09/19 00:09:32;;;;;;;1.77;0.90;;;6.70;99.90;;;;;;5032547;28;20683;-66
2022/09/19 00:12:01;;;;;;;0.70;0.60;;;6.60;99.90;;;;;;5031786;28;20200;-65
2022/09/19 00:14:33;;;;;;;3.40;0.70;;;6.60;99.90;;;;;;5032423;28;20220;-65
2022/09/19 00:17:07;;;;;;;0.90;0.70;;;6.60;99.90;;;;;;5032522;28;20189;-66
2022/09/19 00:19:37;;;;;;;0.60;0.60;;;6.60;99.90;;;;;;5032408;28;20191;-66
2022/09/19 00:22:05;;;;;;;0.67;0.67;;;6.60;99.90;;;;;;5032378;28;20561;-66
2022/09/19 00:24:49;;;;;;;0.77;0.77;;;6.60;99.90;;;;;;5032252;28;20560;-68
2022/09/19 00:27:20;;;;;;;0.67;0.67;;;6.50;99.90;;;;;;5032173;28;20203;-65
2022/09/19 00:29:49;;;;;;;0.90;0.70;;;6.50;99.90;;;;;;5032334;28;20193;-64
2022/09/19 00:32:20;;;;;;;0.97;0.73;;;6.50;99.90;;;;;;5032185;28;20193;-64
2022/09/19 00:34:52;;;;;;;1.20;0.60;;;6.50;99.90;;;;;;5047589;28;20216;-65
2022/09/19 00:37:21;;;;;;;0.80;0.70;;;6.50;99.90;;;;;;5032274;28;20197;-65
2022/09/19 00:39:52;;;;;;;1.10;0.70;;;6.60;99.90;;;;;;5032221;28;20203;-65
2022/09/19 00:42:24;;;;;;;0.63;0.63;;;6.60;99.90;;;;;;5032388;28;20645;-64
2022/09/19 00:44:59;;;;;;;0.73;0.70;;;6.60;99.90;;;;;;5047195;28;20220;-65
2022/09/19 00:47:35;;;;;;;0.53;0.53;;;6.70;99.90;;;;;;5030875;28;20207;-64
2022/09/19 00:50:09;;;;;;;0.87;0.80;;;6.70;99.90;;;;;;5032114;28;20184;-64
2022/09/19 00:52:44;;;;;;;1.00;0.60;;;6.70;99.90;;;;;;5032047;28;20188;-64
2022/09/19 00:55:12;;;;;;;1.57;0.60;;;6.60;99.90;;;;;;5030877;28;20231;-64
2022/09/19 00:57:53;;;;;;;0.93;0.40;;;6.60;99.90;;;;;;5030861;28;20638;-65
2022/09/19 01:00:22;;;;;;;2.50;0.80;;;6.70;99.90;;;;;;5031933;28;20204;-65
2022/09/19 01:02:52;;;;;;;2.17;0.70;;;6.70;99.90;;;;;;5030821;28;20198;-64
2022/09/19 01:05:28;;;;;;;1.50;0.80;;;6.80;99.90;;;;;;5031930;28;20213;-64
2022/09/19 01:08:14;;;;;;;2.10;1.03;;;6.70;99.90;;;;;;5031908;28;20547;-64
2022/09/19 01:10:57;;;;;;;1.03;0.70;;;6.70;99.90;;;;;;5032134;28;20649;-64
2022/09/19 01:13:38;;;;;;;2.00;0.80;;;6.70;99.90;;;;;;5030676;28;20188;-63
2022/09/19 01:16:12;;;;;;;1.17;0.80;;;6.80;99.90;;;;;;5031826;28;20197;-64
2022/09/19 01:18:48;;;;;;;2.43;0.60;;;6.80;99.90;;;;;;5031947;28;20530;-65
2022/09/19 01:21:39;;;;;;;1.97;0.83;;;6.80;99.90;;;;;;5047343;28;20188;-64
2022/09/19 01:24:49;;;;;;;2.10;0.70;;;6.80;99.90;;;;;;5034469;28;20722;-65
2022/09/19 01:28:05;;;;;;;0.93;0.77;;;6.80;99.90;;;;;;5033413;28;20231;-66
2022/09/19 01:30:42;;;;;;;1.90;0.70;;;6.80;99.90;;;;;;5033647;28;20212;-65
2022/09/19 01:33:18;;;;;;;1.83;0.60;;;6.80;99.90;;;;;;5035112;28;20212;-68
2022/09/19 01:35:53;;;;;;;1.27;0.90;;;6.90;99.90;;;;;;5034995;28;20214;-64
2022/09/19 01:38:26;;;;;;;2.90;1.07;;;6.90;99.90;;;;;;5034076;28;20215;-65
2022/09/19 01:40:57;;;;;;;4.60;1.00;;;6.90;99.90;;;;;;5033418;28;20668;-64
2022/09/19 01:43:27;;;;;;;5.20;1.10;;;6.90;99.90;;;;;;5053441;28;20211;-63
2022/09/19 01:46:00;;;;;;;8.90;1.27;;;6.90;99.90;;;;;;5053271;28;20210;-64
2022/09/19 01:48:46;;;;;;;2.23;1.03;;;6.90;99.90;;;;;;5053444;28;20199;-64
2022/09/19 01:51:25;;;;;;;2.77;1.03;;;6.90;99.90;;;;;;5053517;28;20216;-64
2022/09/19 01:54:15;;;;;;;2.60;0.90;;;6.90;99.90;;;;;;5053212;28;20729;-63
2022/09/19 01:57:01;;;;;;;3.90;1.37;;;6.90;99.90;;;;;;5054775;28;20216;-64
2022/09/19 02:02:29;;;;;;;4.10;1.73;;;7.00;99.90;;;;;;5022555;28;20587;-71
2022/09/19 02:05:04;;;;;;;5.50;1.43;;;7.00;99.90;;;;;;5007085;28;20221;-71
2022/09/19 02:07:43;;;;;;;4.60;1.37;;;7.10;99.90;;;;;;5006146;28;20693;-72
2022/09/19 02:10:19;;;;;;;5.27;1.53;;;7.10;99.90;;;;;;4982497;28;20217;-71
2022/09/19 02:12:52;;;;;;;2.47;1.50;;;7.10;99.90;;;;;;4988119;28;20197;-72
2022/09/19 02:15:46;;;;;;;5.13;1.40;;;7.10;99.90;;;;;;5005984;28;20197;-70
2022/09/19 02:18:24;;;;;;;4.03;1.60;;;7.20;99.90;;;;;;4986126;28;20236;-70
2022/09/19 02:20:56;;;;;;;6.70;1.63;;;7.10;99.90;;;;;;5002168;28;20302;-69
2022/09/19 02:23:28;;;;;;;4.30;1.77;;;7.20;99.90;;;;;;4987116;28;20197;-69
2022/09/19 02:26:02;;;;;;;6.73;2.20;;;7.20;99.90;;;;;;4996454;28;20205;-69
2022/09/19 02:28:38;;;;;;;2.90;1.83;;;7.20;99.90;;;;;;4991273;28;20606;-69
2022/09/19 02:31:12;;;;;;;4.90;1.93;;;7.20;99.90;;;;;;4993225;28;20201;-69
2022/09/19 02:33:46;;;;;;;2.83;1.73;;;7.20;99.90;;;;;;5002506;28;20229;-69
2022/09/19 02:36:26;;;;;;;5.07;2.00;;;7.20;99.90;;;;;;5021470;28;20558;-68
2022/09/19 02:39:00;;;;;;;8.00;2.00;;;7.20;99.90;;;;;;5005613;28;20227;-69
2022/09/19 02:41:56;;;;;;;3.77;2.10;;;7.20;99.90;;;;;;4998516;28;20202;-69
2022/09/19 02:44:31;;;;;;;7.10;2.50;;;7.20;99.90;;;;;;4983544;28;20221;-69
2022/09/19 02:47:06;;;;;;;6.80;2.40;;;7.20;99.90;;;;;;4985886;28;20229;-69
2022/09/19 02:49:44;;;;;;;6.93;2.17;;;7.20;99.90;;;;;;4995578;28;20200;-69
2022/09/19 02:52:17;;;;;;;4.67;2.50;;;7.20;99.90;;;;;;4991380;28;20205;-69
2022/09/19 02:54:50;;;;;;;7.40;2.67;;;7.20;99.90;;;;;;5000899;28;20221;-70
2022/09/19 02:57:23;;;;;;;6.03;2.27;;;7.20;99.90;;;;;;4984811;28;20209;-69
2022/09/19 02:59:58;;;;;;;6.97;2.33;;;7.20;99.90;;;;;;4983299;28;20208;-69
2022/09/19 03:02:31;;;;;;;6.13;2.20;;;7.20;99.90;;;;;;4984762;28;20208;-70
2022/09/19 03:05:05;;;;;;;5.40;2.50;;;7.20;99.90;;;;;;5006621;28;20225;-69
2022/09/19 03:07:38;;;;;;;9.90;2.93;;;7.20;99.90;;;;;;4984706;28;20228;-69
2022/09/19 03:10:15;;;;;;;5.57;2.57;;;7.20;99.90;;;;;;4988352;28;20216;-69
2022/09/19 03:13:01;;;;;;;8.03;3.03;;;7.30;99.90;;;;;;4991141;28;20205;-70
2022/09/19 03:15:36;;;;;;;6.97;2.53;;;7.30;99.90;;;;;;4997124;28;20232;-69
2022/09/19 03:18:08;;;;;;;6.10;2.67;;;7.30;99.90;;;;;;4992350;28;20221;-69
2022/09/19 03:20:45;;;;;;;5.63;2.77;;;7.30;99.90;;;;;;4976557;28;20210;-68
2022/09/19 03:23:18;;;;;;;8.70;2.90;;;7.30;99.90;;;;;;4976100;28;20575;-69
2022/09/19 03:25:47;;;;;;;6.23;2.23;;;7.30;99.90;;;;;;4976105;28;20210;-69
2022/09/19 03:28:19;;;;;;;6.93;2.60;;;7.30;99.90;;;;;;4980835;28;20252;-69
2022/09/19 03:30:50;;;;;;;6.10;2.40;;;7.30;99.90;;;;;;4977773;28;20213;-69
2022/09/19 03:33:19;;;;;;;5.33;2.47;;;7.30;99.90;;;;;;4975873;28;20205;-69
2022/09/19 03:35:51;;;;;;;5.70;2.47;;;7.30;99.90;;;;;;5008204;28;20213;-69
2022/09/19 03:38:21;;;;;;;7.47;2.60;;;7.30;99.90;;;;;;4995554;28;20665;-69
2022/09/19 03:40:50;;;;;;;8.10;2.50;;;7.30;99.90;;;;;;4995710;28;20684;-69
2022/09/19 03:43:20;;;;;;;6.73;2.93;;;7.30;99.90;;;;;;4994137;28;20213;-69
2022/09/19 03:45:48;;;;;;;6.60;3.20;;;7.30;99.90;;;;;;4991410;28;20681;-69
2022/09/19 03:48:20;;;;;;;7.90;3.07;;;7.40;99.90;;;;;;4992186;28;20231;-69
2022/09/19 03:50:50;;;;;;;3.73;2.40;;;7.40;99.90;;;;;;4986340;28;20720;-69
2022/09/19 03:53:19;;;;;;;7.93;2.80;;;7.40;99.90;;;;;;4975928;28;20206;-69
2022/09/19 03:55:48;;;;;;;5.97;2.63;;;7.40;99.90;;;;;;4991686;28;20202;-69
2022/09/19 03:58:17;;;;;;;9.23;2.70;;;7.40;99.90;;;;;;4975769;28;20658;-68
2022/09/19 04:00:47;;;;;;;6.57;2.70;;;7.40;99.90;;;;;;4991454;28;20217;-68
2022/09/19 04:03:18;;;;;;;3.87;2.50;;;7.40;99.90;;;;;;4975692;28;20233;-68
2022/09/19 04:05:47;;;;;;;6.23;2.80;;;7.40;99.90;;;;;;4991682;28;20210;-70
2022/09/19 04:08:17;;;;;;;9.27;3.27;;;7.40;99.90;;;;;;4981852;28;20224;-69
2022/09/19 04:10:46;;;;;;;6.03;2.80;;;7.50;99.90;;;;;;4995066;28;20205;-69
2022/09/19 04:13:15;;;;;;;6.03;3.10;;;7.40;99.90;;;;;;4995202;28;20197;-69
2022/09/19 04:15:46;;;;;;;5.00;2.70;;;7.50;99.90;;;;;;4995358;28;20213;-69
2022/09/19 04:18:15;;;;;;;7.07;3.00;;;7.50;99.90;;;;;;4995087;28;20567;-69
2022/09/19 04:20:45;;;;;;;8.63;2.70;;;7.50;99.90;;;;;;4995213;28;20208;-69
2022/09/19 04:23:34;;;;;;;8.00;3.13;;;7.50;99.90;;;;;;5012438;28;20212;-69
2022/09/19 04:26:05;;;;;;;8.40;3.00;;;7.50;99.90;;;;;;5012114;28;20200;-69
2022/09/19 04:28:41;;;;;;;6.57;3.27;;;7.60;99.90;;;;;;4994888;28;20704;-69
2022/09/19 04:31:12;;;;;;;7.03;3.50;;;7.60;99.90;;;;;;4994989;28;20629;-69
2022/09/19 04:33:44;;;;;;;6.33;3.07;;;7.60;99.90;;;;;;4994106;28;20577;-68
2022/09/19 04:36:13;;;;;;;7.00;3.43;;;7.50;99.90;;;;;;4987863;28;20202;-69
2022/09/19 04:38:47;;;;;;;8.77;3.20;;;7.50;99.90;;;;;;4975668;28;20205;-69
2022/09/19 04:41:22;;;;;;;7.27;3.80;;;7.60;99.90;;;;;;4975245;28;20205;-68
2022/09/19 04:43:51;;;;;;;5.47;3.27;;;7.60;99.90;;;;;;4976253;28;20724;-69
2022/09/19 04:46:28;;;;;;;7.20;3.67;;;7.60;99.90;;;;;;4991849;28;20205;-69
2022/09/19 04:49:04;;;;;;;10.10;3.47;;;7.60;99.90;;;;;;4980672;28;20232;-69
2022/09/19 04:51:36;;;;;;;9.77;3.87;;;7.60;99.90;;;;;;4984151;28;20190;-69
2022/09/19 04:54:07;;;;;;;7.33;3.97;;;7.60;99.90;;;;;;4988488;28;20221;-68
2022/09/19 04:56:35;;;;;;;8.13;3.90;;;7.60;99.90;;;;;;4998509;28;20196;-69
2022/09/19 04:59:05;;;;;;;11.57;3.90;;;7.60;99.90;;;;;;4987248;28;20212;-69
2022/09/19 05:01:36;;;;;;;10.13;4.03;;;7.60;99.90;;;;;;4992056;28;20205;-69
2022/09/19 05:04:05;;;;;;;6.93;4.27;;;7.60;99.90;;;;;;5003395;28;20239;-69
2022/09/19 05:06:34;;;;;;;8.57;4.50;;;7.60;99.90;;;;;;4985356;28;20185;-69
2022/09/19 05:09:05;;;;;;;12.07;4.20;;;7.60;99.90;;;;;;4991353;28;20233;-69
2022/09/19 05:11:43;;;;;;;9.43;4.23;;;7.60;99.90;;;;;;5007483;28;20204;-69
2022/09/19 05:14:13;;;;;;;10.23;3.77;;;7.70;99.90;;;;;;4985543;28;20708;-69
2022/09/19 05:16:50;;;;;;;8.37;4.20;;;7.70;99.90;;;;;;4989932;28;20192;-69
2022/09/19 05:19:21;;;;;;;7.77;4.30;;;7.70;99.90;;;;;;5006081;28;20264;-69
2022/09/19 05:21:52;;;;;;;10.10;4.03;;;7.70;99.90;;;;;;4992330;28;20189;-69
2022/09/19 05:24:22;;;;;;;8.37;4.10;;;7.70;99.90;;;;;;5000029;28;20218;-69
2022/09/19 05:26:52;;;;;;;8.60;4.07;;;7.70;99.90;;;;;;4990017;28;20194;-69
2022/09/19 05:29:21;;;;;;;9.37;4.20;;;7.70;99.90;;;;;;4985355;28;20693;-69
2022/09/19 05:32:02;;;;;;;8.30;4.07;;;7.70;99.90;;;;;;4986243;28;20194;-69
2022/09/19 05:34:39;;;;;;;15.07;4.57;;;7.80;99.90;;;;;;5008010;28;20218;-69
2022/09/19 05:37:13;;;;;;;8.77;4.53;;;7.80;99.90;;;;;;4990734;28;20200;-69
2022/09/19 05:40:19;;;;;;;10.97;3.77;;;7.80;99.90;;;;;;4954482;29;20250;-69
2022/09/19 05:43:03;;;;;;;7.60;3.90;;;7.80;99.90;;;;;;4987397;28;20214;-69
2022/09/19 05:45:33;;;;;;;10.03;4.20;;;7.90;99.90;;;;;;4989011;28;20680;-69
2022/09/19 05:48:04;;;;;;;8.27;3.70;;;7.90;99.90;;;;;;4969172;28;20197;-69
2022/09/19 05:50:34;;;;;;;11.57;4.27;;;7.90;99.90;;;;;;4986188;28;20217;-68
2022/09/19 05:55:51;;;;;;;8.33;4.30;;;7.90;99.90;;;;;;4989646;28;20201;-69
2022/09/19 05:58:29;;;;;;;8.47;3.93;;;7.90;99.90;;;;;;5010797;28;20197;-69
2022/09/19 06:00:59;;;;;;;7.53;4.33;;;8.00;99.90;;;;;;4983327;28;20673;-69
2022/09/19 06:03:28;;;;;;;6.97;4.10;;;8.00;99.90;;;;;;4989216;28;20190;-69
2022/09/19 06:06:00;;;;;;;12.83;3.93;;;8.00;99.90;;;;;;4990481;28;20197;-69
2022/09/19 06:08:29;;;;;;;9.33;3.70;;;8.10;99.90;;;;;;4988706;28;20197;-69
2022/09/19 06:11:01;;;;;;;11.13;3.70;;;8.10;99.90;;;;;;4990064;28;20232;-68
2022/09/19 06:16:15;;;;;;;8.80;3.63;;;8.10;99.90;;;;;;4995357;28;20569;-69
2022/09/19 06:19:12;;;;;;;11.23;5.30;;;8.10;99.90;;;;;;5008591;28;20198;-69
2022/09/19 06:21:41;;;;;;;17.20;7.57;;;8.10;99.90;;;;;;4984740;28;20197;-69
2022/09/19 06:24:11;;;;;;;13.33;6.90;;;8.20;99.90;;;;;;4985246;28;20739;-69
2022/09/19 06:26:41;;;;;;;7.87;4.90;;;8.20;99.90;;;;;;4988977;28;20567;-68
2022/09/19 06:29:10;;;;;;;10.40;5.13;;;8.30;99.90;;;;;;4987844;28;20248;-70
2022/09/19 06:31:43;;;;;;;8.07;3.47;;;8.30;99.90;;;;;;4983414;28;20207;-70
2022/09/19 06:34:19;;;;;;;11.33;4.97;;;8.30;99.90;;;;;;4983378;28;20223;-69
2022/09/19 06:36:48;;;;;;;13.13;4.20;;;8.30;99.90;;;;;;4989205;28;20205;-70
2022/09/19 06:39:17;;;;;;;11.87;5.40;;;8.30;99.90;;;;;;5005356;28;20205;-69
2022/09/19 06:41:57;;;;;;;12.93;4.53;;;8.40;99.90;;;;;;4984391;28;20185;-69
2022/09/19 06:44:40;;;;;;;9.90;4.90;;;8.40;99.90;;;;;;4982847;28;20214;-69
2022/09/19 06:47:14;;;;;;;9.60;3.80;;;8.50;99.90;;;;;;4986200;28;20202;-69
2022/09/19 06:49:54;;;;;;;13.07;4.40;;;8.40;99.90;;;;;;5010069;28;20227;-69
2022/09/19 06:52:33;;;;;;;10.33;4.37;;;8.40;99.90;;;;;;4987554;28;20196;-69
2022/09/19 06:55:05;;;;;;;13.17;4.33;;;8.40;99.90;;;;;;4988907;28;20210;-69
2022/09/19 06:57:36;;;;;;;8.70;3.90;;;8.40;99.90;;;;;;4986834;28;20552;-69
2022/09/19 07:00:07;;;;;;;11.93;4.43;;;8.40;99.90;;;;;;4983938;28;20556;-69
2022/09/19 07:02:36;;;;;;;7.33;4.20;;;8.40;99.90;;;;;;4985738;28;20186;-69
2022/09/19 07:05:06;;;;;;;10.70;4.07;;;8.50;99.90;;;;;;4988480;28;20271;-68
2022/09/19 07:07:46;;;;;;;6.53;4.00;;;8.50;99.90;;;;;;5020410;28;20194;-68
2022/09/19 07:10:16;;;;;;;7.37;3.80;;;8.50;99.90;;;;;;4983694;28;20716;-67
2022/09/19 07:12:51;;;;;;;10.63;4.33;;;8.50;99.90;;;;;;4984586;28;20205;-69
2022/09/19 07:15:25;;;;;;;10.60;4.17;;;8.60;99.90;;;;;;4988439;28;20218;-69
2022/09/19 07:17:54;;;;;;;11.20;4.40;;;8.60;99.90;;;;;;4988227;28;20547;-69
2022/09/19 07:20:24;;;;;;;9.43;3.97;;;8.60;99.90;;;;;;4983497;28;20189;-68
2022/09/19 07:23:15;;;;;;;10.53;4.27;;;8.70;99.90;;;;;;4993654;28;20202;-68
2022/09/19 07:26:02;;;;;;;8.67;3.90;;;8.80;99.90;;;;;;5002695;28;20190;-68
2022/09/19 07:28:32;;;;;;;14.20;4.37;;;8.90;99.90;;;;;;4988164;28;20675;-68
2022/09/19 07:31:01;;;;;;;7.53;3.80;;;8.90;99.90;;;;;;4985441;28;20597;-68
2022/09/19 07:33:33;;;;;;;7.10;3.27;;;8.90;99.90;;;;;;4982601;28;20221;-68
2022/09/19 07:36:02;;;;;;;10.07;4.40;;;9.00;99.90;;;;;;4987976;28;20372;-68
2022/09/19 07:38:37;;;;;;;10.97;4.17;;;9.00;99.90;;;;;;4985949;28;20185;-68
2022/09/19 07:41:10;;;;;;;11.00;4.10;;;9.10;99.90;;;;;;5000104;28;20672;-67
2022/09/19 07:43:53;;;;;;;10.77;5.10;;;9.20;99.90;;;;;;4985377;28;20221;-66
2022/09/19 07:47:26;;;;;;;9.77;4.90;;;9.40;99.90;;;;;;5006828;28;20193;-67
2022/09/19 07:49:48;;;;;;;10.73;5.17;;;9.40;99.90;;;;;;5014862;28;20671;-67
2022/09/19 07:52:30;;;;;;;8.57;3.80;;;9.40;99.90;;;;;;4984979;28;20185;-67
2022/09/19 07:54:59;;;;;;;7.63;3.60;;;9.50;99.90;;;;;;4987931;28;20230;-66
2022/09/19 07:57:29;;;;;;;10.73;4.80;;;9.50;99.90;;;;;;4985375;28;20197;-67
2022/09/19 07:59:59;;;;;;;10.23;5.07;;;9.40;99.90;;;;;;5088626;22;20182;-68
2022/09/19 08:02:31;;;;;;;12.83;5.10;;;9.50;99.90;;;;;;4991452;28;20213;-70
2022/09/19 08:05:00;;;;;;;8.47;3.90;;;9.50;99.90;;;;;;4975245;28;20222;-69
2022/09/19 08:07:28;;;;;;;6.20;3.57;;;9.50;99.90;;;;;;4975713;28;20555;-69
2022/09/19 08:09:59;;;;;;;11.90;4.67;;;9.50;99.90;;;;;;4991356;28;20221;-68
2022/09/19 08:12:31;;;;;;;12.53;4.67;;;9.50;99.90;;;;;;4975386;28;20213;-69
2022/09/19 08:15:09;;;;;;;10.53;4.00;;;9.50;99.90;;;;;;4975205;28;20213;-67
2022/09/19 08:17:38;;;;;;;5.53;3.60;;;9.60;99.90;;;;;;4991596;28;20193;-65
2022/09/19 08:20:07;;;;;;;7.93;3.60;;;9.60;99.90;;;;;;4991281;28;20693;-67
2022/09/19 08:22:40;;;;;;;11.33;3.57;;;9.60;99.90;;;;;;4991504;28;20561;-67
2022/09/19 08:25:11;;;;;;;12.03;3.83;;;9.70;99.90;;;;;;4991159;28;20578;-67
2022/09/19 08:27:44;;;;;;;9.07;3.87;;;9.70;99.90;;;;;;4991445;28;20592;-67
2022/09/19 08:30:14;;;;;;;11.53;3.60;;;9.80;99.90;;;;;;4991218;28;20197;-66
2022/09/19 08:32:45;;;;;;;6.50;3.77;;;9.90;99.90;;;;;;4990898;28;20209;-67
2022/09/19 08:35:16;;;;;;;8.10;3.53;;;9.90;99.90;;;;;;4992281;28;20217;-65
2022/09/19 08:37:45;;;;;;;9.07;3.17;;;10.00;99.90;;;;;;4975256;28;20196;-67
2022/09/19 08:40:16;;;;;;;9.00;3.70;;;10.00;99.90;;;;;;4992201;28;20722;-67
2022/09/19 08:42:58;;;;;;;6.53;3.27;;;10.00;99.90;;;;;;4975246;28;20186;-66
2022/09/19 08:45:42;;;;;;;14.60;4.60;;;10.10;99.90;;;;;;4990971;28;20638;-67
2022/09/19 08:48:15;;;;;;;8.57;3.37;;;10.20;99.90;;;;;;4974964;28;20197;-68
2022/09/19 08:50:56;;;;;;;5.50;2.57;;;10.20;99.90;;;;;;4991167;28;20595;-67
2022/09/19 08:53:28;;;;;;;5.87;3.13;;;10.30;99.90;;;;;;4992110;28;20193;-67
2022/09/19 08:56:00;;;;;;;7.40;4.07;;;10.40;99.90;;;;;;4990968;28;20186;-68
2022/09/19 08:58:32;;;;;;;7.30;3.00;;;10.40;99.90;;;;;;4991672;28;20197;-70
2022/09/19 09:01:26;;;;;;;6.17;2.77;;;10.40;99.90;;;;;;4990966;28;20629;-68
2022/09/19 09:04:36;;;;;;;7.73;2.87;;;10.40;99.90;;;;;;4986839;28;20225;-67
2022/09/19 09:07:28;;;;;;;7.83;3.37;;;10.50;99.90;;;;;;4971844;28;20594;-66
2022/09/19 09:10:29;;;;;;;6.97;3.13;;;10.50;99.90;;;;;;4991963;28;20201;-67
2022/09/19 09:13:10;;;;;;;9.30;2.90;;;10.60;99.90;;;;;;4974662;28;20224;-67
2022/09/19 09:15:50;;;;;;;9.73;2.67;;;10.60;99.90;;;;;;4988320;28;20197;-68
2022/09/19 09:18:37;;;;;;;6.87;2.60;;;10.60;99.90;;;;;;4974607;28;20182;-67
2022/09/19 09:21:16;;;;;;;8.70;2.87;;;10.70;99.90;;;;;;4983590;28;20191;-67
2022/09/19 09:23:52;;;;;;;5.90;2.77;;;10.70;99.90;;;;;;4989900;28;20673;-66
2022/09/19 09:26:43;;;;;;;6.17;2.43;;;10.80;99.90;;;;;;4990760;28;20197;-65
2022/09/19 09:29:22;;;;;;;7.37;2.63;;;10.80;99.90;;;;;;4974735;28;20188;-65
2022/09/19 09:32:18;;;;;;;5.93;2.50;;;11.00;99.90;;;;;;4990686;28;20689;-65
2022/09/19 09:34:58;;;;;;;5.40;2.50;;;10.90;99.90;;;;;;4974473;28;20666;-66
2022/09/19 09:37:32;;;;;;;6.63;2.63;;;10.90;99.90;;;;;;4987611;28;20193;-67
2022/09/19 09:40:13;;;;;;;6.13;2.50;;;11.00;99.90;;;;;;4974607;28;20197;-65
2022/09/19 09:42:50;;;;;;;7.53;2.60;;;11.10;99.90;;;;;;4974603;28;20212;-65
2022/09/19 09:45:28;;;;;;;6.72;3.35;;;11.00;99.90;;;;;;4976894;28;20218;-67
2022/09/19 09:48:09;;;;;;;9.02;2.42;;;11.10;99.90;;;;;;4978121;28;20209;-65
2022/09/19 09:50:57;;;;;;;7.28;2.63;;;11.10;99.90;;;;;;4977777;28;20182;-65
2022/09/19 09:53:36;;;;;;;5.38;2.65;;;11.10;99.90;;;;;;4976865;28;20230;-67
2022/09/19 09:56:16;;;;;;;6.07;2.00;;;11.10;99.90;;;;;;4977460;28;20198;-68
2022/09/19 09:58:59;;;;;;;9.57;2.93;;;11.10;99.90;;;;;;4994309;28;20198;-67
2022/09/19 10:04:33;;;;;;;5.53;1.88;;;11.30;99.90;;;;;;4994075;28;20224;-68
2022/09/19 10:07:25;;;;;;;6.40;2.40;;;11.50;99.90;;;;;;4977759;28;20198;-68
2022/09/19 10:09:59;;;;;;;6.22;2.22;;;11.70;99.90;;;;;;4977457;28;20198;-68
2022/09/19 10:12:37;;;;;;;7.15;2.15;;;11.70;99.90;;;;;;4968053;28;20220;-67
2022/09/19 10:15:20;;;;;;;4.22;2.25;;;11.70;99.90;;;;;;4993484;28;20236;-67
2022/09/19 10:18:13;;;;;;;6.55;2.65;;;11.60;99.90;;;;;;4988815;28;20214;-68
2022/09/19 10:20:55;;;;;;;6.47;2.42;;;11.40;99.90;;;;;;4977538;28;20205;-65
2022/09/19 10:23:32;;;;;;;6.13;2.60;;;11.30;99.90;;;;;;4993399;28;20190;-65
2022/09/19 10:26:19;;;;;;;8.03;2.90;;;11.20;99.90;;;;;;4992566;28;20194;-65
2022/09/19 10:28:59;;;;;;;6.28;3.17;;;11.30;99.90;;;;;;4977121;28;20186;-65
2022/09/19 10:31:49;;;;;;;6.90;2.90;;;11.40;99.90;;;;;;4987916;28;20195;-66
2022/09/19 10:34:50;;;;;;;8.82;2.70;;;11.40;99.90;;;;;;4924583;28;20243;-67
2022/09/19 10:37:27;;;;;;;7.72;3.05;;;11.50;99.90;;;;;;4993094;28;20201;-67
2022/09/19 10:40:03;;;;;;;5.53;2.60;;;11.40;99.90;;;;;;4985610;28;20190;-67
2022/09/19 10:42:41;;;;;;;5.65;2.47;;;11.40;99.90;;;;;;4978539;28;20205;-68
2022/09/19 10:45:25;;;;;;;8.50;3.08;;;11.40;99.90;;;;;;4993136;28;20217;-66
2022/09/19 10:48:00;;;;;;;8.40;2.80;;;11.40;99.90;;;;;;4989992;28;20193;-65
2022/09/19 10:50:30;;;;;;;5.15;2.67;;;11.40;99.90;;;;;;4993030;28;20196;-66
2022/09/19 10:53:07;;;;;;;7.47;2.60;;;11.40;99.90;;;;;;4974829;28;20650;-67
2022/09/19 10:55:43;;;;;;;5.90;2.22;;;11.30;99.90;;;;;;4976059;28;20225;-66
2022/09/19 10:58:16;;;;;;;5.88;2.15;;;11.30;99.90;;;;;;4992986;28;20209;-66
2022/09/19 11:00:52;;;;;;;8.20;2.45;;;11.30;99.90;;;;;;4976381;28;20212;-67
2022/09/19 11:03:26;;;;;;;6.57;2.50;;;11.30;99.90;;;;;;4992847;28;20185;-67
2022/09/19 11:06:06;;;;;;;8.93;2.58;;;11.20;99.90;;;;;;4992568;28;20197;-67
2022/09/19 11:08:42;;;;;;;5.38;2.10;;;11.30;99.90;;;;;;4986083;28;20182;-68
2022/09/19 11:11:36;;;;;;;7.18;2.55;;;11.20;99.90;;;;;;4992559;28;20254;-66
2022/09/19 11:14:15;;;;;;;6.97;2.67;;;11.20;99.90;;;;;;4992406;28;20241;-66
2022/09/19 11:17:00;;;;;;;8.32;2.83;;;11.20;99.90;;;;;;4992595;28;20185;-66
2022/09/19 11:19:49;;;;;;;5.00;2.33;;;11.20;99.90;;;;;;4991700;28;20210;-66
2022/09/19 11:22:32;;;;;;;4.65;2.17;;;11.20;99.90;;;;;;4976241;28;20208;-64
2022/09/19 11:25:15;;;;;;;5.18;2.55;;;11.20;99.90;;;;;;4976164;28;20224;-66
2022/09/19 11:27:59;;;;;;;5.72;2.63;;;11.30;99.90;;;;;;4975989;28;20646;-68
2022/09/19 11:30:30;;;;;;;4.65;2.33;;;11.30;99.90;;;;;;4992325;28;20677;-68
2022/09/19 11:33:24;;;;;;;12.13;2.70;;;11.40;99.90;;;;;;4991589;28;20634;-67
2022/09/19 11:36:51;;;;;;;8.00;2.38;;;11.40;99.90;;;;;;4983374;28;20205;-68
2022/09/19 11:39:30;;;;;;;7.53;2.38;;;11.60;99.90;;;;;;4959256;28;20196;-68
2022/09/19 11:42:25;;;;;;;5.03;2.88;;;11.70;99.90;;;;;;4987159;28;20634;-67
2022/09/19 11:45:09;;;;;;;6.15;2.70;;;11.70;99.90;;;;;;4989907;28;20225;-68
2022/09/19 11:48:18;;;;;;;8.55;2.83;;;11.70;99.90;;;;;;4993024;28;20673;-67
2022/09/19 11:51:02;;;;;;;11.27;2.92;;;11.60;99.90;;;;;;4971665;28;20200;-67
2022/09/19 11:53:56;;;;;;;9.70;3.35;;;11.40;99.90;;;;;;4968486;28;20725;-67
2022/09/19 11:56:46;;;;;;;5.20;3.00;;;11.40;99.90;;;;;;4973234;28;20186;-67
2022/09/19 11:59:45;;;;;;;8.02;2.85;;;11.40;99.90;;;;;;4975486;28;20182;-65
2022/09/19 12:02:58;;;;;;;8.98;2.78;;;11.50;99.90;;;;;;4987040;28;20592;-65
2022/09/19 12:05:45;;;;;;;11.38;3.00;;;11.40;99.90;;;;;;4970357;28;20221;-67
2022/09/19 12:08:26;;;;;;;7.25;2.85;;;11.40;99.90;;;;;;4988975;28;20190;-66
2022/09/19 12:11:01;;;;;;;7.97;2.70;;;11.40;99.90;;;;;;4991346;28;20189;-67
2022/09/19 12:13:40;;;;;;;6.15;2.97;;;11.40;99.90;;;;;;4982834;28;20209;-66
2022/09/19 12:16:15;;;;;;;3.78;2.38;;;11.30;99.90;;;;;;4975258;28;20178;-67
2022/09/19 12:18:57;;;;;;;11.38;3.40;;;11.40;99.90;;;;;;4984081;28;20565;-68
2022/09/19 12:21:36;;;;;;;6.00;3.03;;;11.40;99.90;;;;;;4975234;28;20190;-66
2022/09/19 12:27:04;;;;;;;10.32;3.55;;;11.50;99.90;;;;;;4991225;28;20205;-66
2022/09/19 12:29:39;;;;;;;7.57;3.00;;;11.50;99.90;;;;;;4991257;28;20186;-66
2022/09/19 12:32:15;;;;;;;9.07;2.85;;;11.60;99.90;;;;;;4991431;28;20186;-67
2022/09/19 12:34:57;;;;;;;5.47;2.78;;;11.60;99.90;;;;;;4974880;28;20225;-66
2022/09/19 12:37:38;;;;;;;5.88;2.63;;;11.90;99.90;;;;;;4975143;28;20190;-68
2022/09/19 12:40:24;;;;;;;8.18;2.65;;;12.30;99.90;;;;;;4989191;28;20555;-67
2022/09/19 12:42:58;;;;;;;5.60;2.28;;;12.60;99.90;;;;;;4991022;28;20194;-67
2022/09/19 12:45:37;;;;;;;8.52;2.45;;;12.80;99.90;;;;;;4984241;28;20218;-68
2022/09/19 12:48:15;;;;;;;6.03;2.20;;;12.90;99.90;;;;;;4991044;28;20190;-67
2022/09/19 12:51:10;;;;;;;5.07;2.30;;;13.20;99.90;;;;;;4984930;28;20571;-69
2022/09/19 12:53:44;;;;;;;6.43;2.25;;;13.50;99.90;;;;;;4992286;28;20225;-68
2022/09/19 12:56:19;;;;;;;4.90;1.92;;;13.70;99.90;;;;;;4988998;28;20198;-67
2022/09/19 12:59:05;;;;;;;5.80;2.17;;;13.90;99.90;;;;;;4991656;28;20204;-69
2022/09/19 13:01:38;;;;;;;7.28;2.10;;;14.00;99.90;;;;;;4990573;28;20205;-69
2022/09/19 13:04:25;;;;;;;5.88;1.75;;;14.00;99.90;;;;;;4973237;28;20225;-70
2022/09/19 13:07:00;;;;;;;3.75;2.05;;;13.90;99.90;;;;;;4990944;28;20198;-70
2022/09/19 13:09:34;;;;;;;5.18;1.98;;;13.90;99.90;;;;;;4990647;28;20665;-70
2022/09/19 13:12:13;;;;;;;7.93;2.25;;;13.70;99.90;;;;;;4990677;28;20236;-71
2022/09/19 13:14:49;;;;;;;5.30;1.58;;;13.60;99.90;;;;;;4991051;28;20225;-71
2022/09/19 13:25:51;;;;;;;6.13;2.50;;;12.70;99.90;;;;;;4996335;28;20216;-70
2022/09/19 13:28:34;;;;;;;8.65;2.88;;;12.30;99.90;;;;;;4996202;28;20208;-68
2022/09/19 13:31:17;;;;;;;9.65;3.00;;;11.90;99.90;;;;;;4995502;28;20205;-68
2022/09/19 13:33:49;;;;;;;9.13;3.00;;;11.40;99.90;;;;;;4996014;28;20567;-67
2022/09/19 13:36:39;;;;;;;10.45;3.80;;;11.10;99.90;;;;;;4996097;28;20198;-68
2022/09/19 13:39:54;;;;;;;6.90;3.60;;;11.00;99.90;;;;;;4996106;28;20588;-66
2022/09/19 13:42:29;;;;;;;7.75;4.60;;;10.90;99.90;;;;;;4995956;28;20182;-67
2022/09/19 13:45:05;;;;;;;10.93;4.82;;;10.90;99.90;;;;;;4996002;28;20221;-67
2022/09/19 13:47:40;;;;;;;9.57;4.57;;;11.00;99.90;;;;;;4995805;28;20200;-69
2022/09/19 13:50:22;;;;;;;11.95;4.47;;;11.00;99.90;;;;;;4995838;28;20199;-67
2022/09/19 13:53:00;;;;;;;8.95;4.07;;;11.00;99.90;;;;;;4995824;28;20666;-67
2022/09/19 13:55:36;;;;;;;8.85;4.00;;;11.00;99.90;;;;;;4995602;28;20230;-68
2022/09/19 13:58:27;;;;;;;8.07;3.47;;;11.10;99.90;;;;;;4995693;28;20205;-67
2022/09/19 14:01:19;;;;;;;6.47;3.33;;;11.10;99.90;;;;;;4996086;28;20198;-68
2022/09/19 14:03:54;;;;;;;6.47;3.13;;;11.20;99.90;;;;;;4995613;28;20217;-67
2022/09/19 14:06:30;;;;;;;7.35;3.30;;;11.30;99.90;;;;;;4995968;28;20206;-67